Time;durP1;ratioP1;P1;durP2;ratioP2;P2;SDS_P1;SDS_P2;PMS_P1;PMS_P2;Temp;Humidity;BMP_temperature;BMP_pressure;BME280_temperature;BME280_humidity;BME280_pressure;Samples;Min_cycle;Max_cycle;Signal;HPM_P1;HPM_P2
2021/11/28 00:00:42;;;;;;;11.25;4.43;;;1.70;99.90;;;;;;5006231;28;20036;-79
2021/11/28 00:03:08;;;;;;;8.90;4.40;;;1.80;99.90;;;;;;4984336;28;20425;-79
2021/11/28 00:05:34;;;;;;;9.75;4.53;;;1.80;99.90;;;;;;4975140;28;20033;-78
2021/11/28 00:10:53;;;;;;;10.15;4.03;;;1.70;99.90;;;;;;4992999;28;20064;-78
2021/11/28 00:15:55;;;;;;;5.17;2.87;;;1.80;99.90;;;;;;4994017;28;20105;-79
2021/11/28 00:18:21;;;;;;;5.68;3.83;;;1.70;99.90;;;;;;4970022;28;20136;-79
2021/11/28 00:20:46;;;;;;;8.55;3.70;;;1.70;99.90;;;;;;4974197;28;20529;-79
2021/11/28 00:23:12;;;;;;;11.02;4.90;;;1.70;99.90;;;;;;4974436;28;20106;-78
2021/11/28 00:25:37;;;;;;;7.90;4.45;;;1.60;99.90;;;;;;4974129;28;20069;-78
2021/11/28 00:28:03;;;;;;;11.80;4.65;;;1.60;99.90;;;;;;5003963;28;20110;-79
2021/11/28 00:30:29;;;;;;;6.80;4.43;;;1.50;99.90;;;;;;5002338;28;20088;-78
2021/11/28 00:32:55;;;;;;;12.48;5.45;;;1.40;99.90;;;;;;4973232;28;20499;-79
2021/11/28 00:35:20;;;;;;;8.57;5.10;;;1.50;99.90;;;;;;4991659;28;20660;-79
2021/11/28 00:37:46;;;;;;;9.10;3.55;;;1.40;99.90;;;;;;5001222;28;20033;-79
2021/11/28 00:40:12;;;;;;;13.70;5.50;;;1.30;99.90;;;;;;4985271;28;20056;-79
2021/11/28 00:42:37;;;;;;;6.88;4.57;;;1.20;99.90;;;;;;4990053;28;20033;-80
2021/11/28 00:45:04;;;;;;;14.10;6.43;;;1.10;99.90;;;;;;5001737;28;20034;-79
2021/11/28 00:47:29;;;;;;;17.58;5.45;;;1.10;99.90;;;;;;5002989;28;20088;-78
2021/11/28 00:50:24;;;;;;;10.65;4.63;;;1.00;99.90;;;;;;4971079;28;20448;-78
2021/11/28 00:52:51;;;;;;;15.02;6.07;;;1.10;99.90;;;;;;4992788;28;20022;-79
2021/11/28 00:55:16;;;;;;;9.60;3.25;;;1.10;99.90;;;;;;4967198;28;20069;-79
2021/11/28 00:57:42;;;;;;;11.13;4.72;;;1.10;99.90;;;;;;4985791;28;20322;-79
2021/11/28 01:00:08;;;;;;;13.10;5.43;;;1.00;99.90;;;;;;4989842;28;20056;-79
2021/11/28 01:02:34;;;;;;;10.65;5.15;;;1.00;99.90;;;;;;5001346;28;20033;-79
2021/11/28 01:05:00;;;;;;;10.13;4.68;;;0.80;99.90;;;;;;4988390;28;20052;-79
2021/11/28 01:07:26;;;;;;;18.48;6.65;;;0.80;99.90;;;;;;4971023;28;20029;-79
2021/11/28 01:09:53;;;;;;;14.90;5.57;;;0.70;99.90;;;;;;5004399;28;20460;-79
2021/11/28 01:12:19;;;;;;;12.32;5.35;;;0.70;99.90;;;;;;4968435;28;20038;-79
2021/11/28 01:14:44;;;;;;;10.57;5.78;;;0.70;99.90;;;;;;4972587;28;20030;-79
2021/11/28 01:17:10;;;;;;;10.35;4.60;;;0.80;99.90;;;;;;5006737;28;20041;-79
2021/11/28 01:19:35;;;;;;;6.43;3.33;;;0.80;99.90;;;;;;5002713;28;20429;-79
2021/11/28 01:22:04;;;;;;;10.40;5.03;;;1.00;99.90;;;;;;5005581;28;20448;-79
2021/11/28 01:24:30;;;;;;;9.57;5.65;;;1.00;99.90;;;;;;4987177;28;20033;-79
2021/11/28 01:26:56;;;;;;;12.35;5.00;;;0.80;99.90;;;;;;5003969;28;20453;-79
2021/11/28 01:29:21;;;;;;;15.27;6.05;;;0.80;99.90;;;;;;4971698;28;20385;-79
2021/11/28 01:31:47;;;;;;;13.63;6.50;;;0.80;99.90;;;;;;4973003;28;20033;-79
2021/11/28 01:34:12;;;;;;;21.88;6.72;;;0.80;99.90;;;;;;4973894;28;20026;-79
2021/11/28 01:36:39;;;;;;;12.75;6.65;;;0.80;99.90;;;;;;5002509;28;20449;-79
2021/11/28 01:39:05;;;;;;;13.52;6.78;;;0.90;99.90;;;;;;4999744;28;20036;-79
2021/11/28 01:41:31;;;;;;;16.98;6.75;;;0.90;99.90;;;;;;4988928;28;20088;-79
2021/11/28 01:43:57;;;;;;;17.75;7.65;;;0.90;99.90;;;;;;5008260;28;20029;-79
2021/11/28 01:46:23;;;;;;;17.45;7.07;;;0.90;99.90;;;;;;4973184;28;20452;-79
2021/11/28 01:48:48;;;;;;;15.05;7.80;;;0.90;99.90;;;;;;5008768;28;20448;-79
2021/11/28 01:51:14;;;;;;;14.38;7.22;;;1.00;99.90;;;;;;4987883;28;20211;-79
2021/11/28 01:53:40;;;;;;;15.68;7.10;;;1.00;99.90;;;;;;4991752;28;20569;-79
2021/11/28 01:56:05;;;;;;;15.00;6.53;;;1.00;99.90;;;;;;4996871;28;20401;-79
2021/11/28 01:58:31;;;;;;;17.70;7.38;;;1.10;99.90;;;;;;4975279;28;20033;-79
2021/11/28 02:00:58;;;;;;;11.52;6.15;;;1.10;99.90;;;;;;5004597;28;20025;-79
2021/11/28 02:03:24;;;;;;;8.88;5.03;;;1.10;99.90;;;;;;4976154;28;20501;-79
2021/11/28 02:05:53;;;;;;;9.82;4.72;;;1.30;99.90;;;;;;4991340;28;20068;-79
2021/11/28 02:08:18;;;;;;;6.63;4.32;;;1.40;99.90;;;;;;4977350;28;20033;-79
2021/11/28 02:10:45;;;;;;;12.68;4.95;;;1.60;99.90;;;;;;4988760;28;20048;-79
2021/11/28 02:13:10;;;;;;;12.40;6.07;;;1.60;99.90;;;;;;5007115;28;20042;-79
2021/11/28 02:15:36;;;;;;;14.35;6.25;;;1.50;99.90;;;;;;4992753;28;20511;-79
2021/11/28 02:18:02;;;;;;;14.23;6.13;;;1.30;99.90;;;;;;5000688;28;20104;-79
2021/11/28 02:20:29;;;;;;;11.93;5.78;;;1.30;99.90;;;;;;5007081;28;20033;-79
2021/11/28 02:22:55;;;;;;;9.27;4.82;;;1.30;99.90;;;;;;4974411;28;20041;-79
2021/11/28 02:25:21;;;;;;;12.27;3.97;;;1.30;99.90;;;;;;4975433;28;20041;-79
2021/11/28 02:27:46;;;;;;;11.00;5.40;;;1.30;99.90;;;;;;4975494;28;20067;-79
2021/11/28 02:30:13;;;;;;;14.25;6.30;;;1.30;99.90;;;;;;4976387;28;20112;-79
2021/11/28 02:32:39;;;;;;;9.13;4.72;;;1.20;99.90;;;;;;5002771;28;20489;-79
2021/11/28 02:35:04;;;;;;;11.23;5.47;;;1.30;99.90;;;;;;4973918;28;20056;-79
2021/11/28 02:37:30;;;;;;;6.82;4.47;;;1.30;99.90;;;;;;4992363;28;20061;-79
2021/11/28 02:39:57;;;;;;;9.35;4.20;;;1.20;99.90;;;;;;4975122;28;20037;-79
2021/11/28 02:42:24;;;;;;;7.97;3.83;;;1.40;99.90;;;;;;4990778;28;20037;-79
2021/11/28 02:44:50;;;;;;;9.63;5.03;;;1.30;99.90;;;;;;5008075;28;20041;-79
2021/11/28 02:47:15;;;;;;;11.80;5.13;;;1.10;99.90;;;;;;4989205;28;20558;-79
2021/11/28 02:49:41;;;;;;;8.85;5.13;;;1.00;99.90;;;;;;4990093;28;20644;-79
2021/11/28 02:52:10;;;;;;;10.02;4.97;;;0.80;99.90;;;;;;4971566;28;20148;-79
2021/11/28 02:54:36;;;;;;;13.35;5.90;;;0.80;99.90;;;;;;5005373;28;20519;-79
2021/11/28 02:57:03;;;;;;;12.85;5.57;;;0.70;99.90;;;;;;4991012;28;20397;-79
2021/11/28 02:59:28;;;;;;;8.95;6.32;;;0.60;99.90;;;;;;4989866;28;20263;-79
2021/11/28 03:01:54;;;;;;;13.48;6.15;;;0.50;99.90;;;;;;4991389;28;20045;-79
2021/11/28 03:04:19;;;;;;;9.57;5.70;;;0.50;99.90;;;;;;5003727;28;20354;-79
2021/11/28 03:06:45;;;;;;;10.30;6.05;;;0.40;99.90;;;;;;4970227;28;20034;-79
2021/11/28 03:09:10;;;;;;;12.20;5.88;;;0.50;99.90;;;;;;4972335;28;20061;-79
2021/11/28 03:11:36;;;;;;;13.63;5.20;;;0.60;99.90;;;;;;4990141;28;20033;-79
2021/11/28 03:14:01;;;;;;;13.15;5.45;;;0.50;99.90;;;;;;5006777;28;20040;-79
2021/11/28 03:16:27;;;;;;;10.60;5.88;;;0.30;99.90;;;;;;4975507;28;20034;-79
2021/11/28 03:18:53;;;;;;;10.70;6.05;;;0.20;99.90;;;;;;4983279;28;20033;-79
2021/11/28 03:21:23;;;;;;;10.95;6.18;;;0.10;99.90;;;;;;4987795;28;20066;-79
2021/11/28 03:23:50;;;;;;;16.75;6.13;;;0.10;99.90;;;;;;4991156;28;20116;-79
2021/11/28 03:26:15;;;;;;;11.88;6.68;;;0.00;99.90;;;;;;4971428;28;20030;-79
2021/11/28 03:28:55;;;;;;;15.10;7.35;;;0.10;99.90;;;;;;5007188;28;20022;-79
2021/11/28 03:31:22;;;;;;;13.55;7.13;;;0.00;99.90;;;;;;4987502;28;20529;-79
2021/11/28 03:33:48;;;;;;;12.77;7.18;;;0.10;99.90;;;;;;4989642;28;20064;-79
2021/11/28 03:36:15;;;;;;;12.00;6.80;;;0.10;99.90;;;;;;4976058;28;20033;-79
2021/11/28 03:38:41;;;;;;;18.35;6.75;;;0.10;99.90;;;;;;4982477;28;20414;-80
2021/11/28 03:41:06;;;;;;;14.88;8.30;;;0.10;99.90;;;;;;5003940;28;20068;-79
2021/11/28 03:43:32;;;;;;;14.35;7.15;;;0.20;99.90;;;;;;4990923;28;20033;-79
2021/11/28 03:45:58;;;;;;;13.13;8.35;;;0.30;99.90;;;;;;4986520;28;20106;-79
2021/11/28 03:48:23;;;;;;;15.77;7.38;;;0.30;99.90;;;;;;5005544;28;20061;-79
2021/11/28 03:50:49;;;;;;;13.15;7.38;;;0.30;99.90;;;;;;4990449;28;20066;-79
2021/11/28 03:53:14;;;;;;;19.83;7.70;;;0.40;99.90;;;;;;4989678;28;20079;-79
2021/11/28 03:55:41;;;;;;;16.50;7.20;;;0.40;99.90;;;;;;5003827;28;20056;-79
2021/11/28 03:58:07;;;;;;;17.52;7.35;;;0.40;99.90;;;;;;5004531;28;20108;-80
2021/11/28 04:00:32;;;;;;;13.75;7.00;;;0.40;99.90;;;;;;4972331;28;20037;-79
2021/11/28 04:02:58;;;;;;;11.60;7.13;;;0.40;99.90;;;;;;5002546;28;20041;-79
2021/11/28 04:05:24;;;;;;;14.40;7.47;;;0.50;99.90;;;;;;5004910;28;20201;-79
2021/11/28 04:07:49;;;;;;;16.90;7.65;;;0.40;99.90;;;;;;4972535;28;20034;-79
2021/11/28 04:10:15;;;;;;;15.57;7.10;;;0.40;99.90;;;;;;4973746;28;20086;-79
2021/11/28 04:12:41;;;;;;;13.73;8.07;;;0.40;99.90;;;;;;5005629;28;20088;-79
2021/11/28 04:15:07;;;;;;;19.10;7.53;;;0.40;99.90;;;;;;4986583;28;20393;-79
2021/11/28 04:17:32;;;;;;;14.18;7.60;;;0.50;99.90;;;;;;4973459;28;20037;-79
2021/11/28 04:19:58;;;;;;;11.32;7.45;;;0.50;99.90;;;;;;4986028;28;20029;-79
2021/11/28 04:22:24;;;;;;;12.60;7.93;;;0.50;99.90;;;;;;4989237;28;20044;-79
2021/11/28 04:24:50;;;;;;;14.98;7.95;;;0.50;99.90;;;;;;4969791;28;20121;-79
2021/11/28 04:27:15;;;;;;;20.63;8.88;;;0.50;99.90;;;;;;5005656;28;20397;-80
2021/11/28 04:29:42;;;;;;;17.95;9.25;;;0.50;99.90;;;;;;5006586;28;20036;-79
2021/11/28 04:32:07;;;;;;;16.25;8.80;;;0.50;99.90;;;;;;4998237;28;20021;-79
2021/11/28 04:34:33;;;;;;;15.82;8.25;;;0.50;99.90;;;;;;5004683;28;20026;-80
2021/11/28 04:36:58;;;;;;;17.50;9.15;;;0.50;99.90;;;;;;4987569;28;20382;-79
2021/11/28 04:39:24;;;;;;;15.32;8.40;;;0.60;99.90;;;;;;5005614;28;20022;-79
2021/11/28 04:41:49;;;;;;;17.73;8.48;;;0.60;99.90;;;;;;4971195;28;20029;-79
2021/11/28 04:44:15;;;;;;;12.00;6.40;;;0.60;99.90;;;;;;4989032;28;20025;-79
2021/11/28 04:46:41;;;;;;;14.98;8.88;;;0.60;99.90;;;;;;4971824;28;20045;-79
2021/11/28 04:49:07;;;;;;;15.02;8.65;;;0.60;99.90;;;;;;4972104;28;20041;-79
2021/11/28 04:51:32;;;;;;;13.32;8.60;;;0.60;99.90;;;;;;4985358;28;20029;-79
2021/11/28 04:53:58;;;;;;;19.42;9.55;;;0.60;99.90;;;;;;4990165;28;20477;-79
2021/11/28 04:56:24;;;;;;;15.85;8.73;;;0.70;99.90;;;;;;4988495;28;20044;-79
2021/11/28 04:58:50;;;;;;;18.42;9.25;;;0.70;99.90;;;;;;4972572;28;20414;-79
2021/11/28 05:01:15;;;;;;;11.65;6.65;;;0.70;99.90;;;;;;5003166;28;20045;-79
2021/11/28 05:03:41;;;;;;;13.60;8.07;;;0.80;99.90;;;;;;4974420;28;20041;-79
2021/11/28 05:06:07;;;;;;;18.02;8.82;;;0.90;99.90;;;;;;5002231;28;20552;-80
2021/11/28 05:08:32;;;;;;;15.18;8.02;;;0.90;99.90;;;;;;4986637;28;20037;-79
2021/11/28 05:10:58;;;;;;;8.68;6.00;;;0.80;99.90;;;;;;4967621;28;20428;-79
2021/11/28 05:13:23;;;;;;;9.55;5.65;;;0.80;99.90;;;;;;5002273;28;20116;-80
2021/11/28 05:15:49;;;;;;;19.90;8.73;;;0.90;99.90;;;;;;5010783;28;20268;-79
2021/11/28 05:18:15;;;;;;;13.63;7.90;;;0.90;99.90;;;;;;5004823;28;20405;-80
2021/11/28 05:20:40;;;;;;;14.90;7.93;;;0.80;99.90;;;;;;5002179;28;20489;-79
2021/11/28 05:23:06;;;;;;;13.43;7.40;;;0.80;99.90;;;;;;4991963;28;20192;-79
2021/11/28 05:25:31;;;;;;;15.90;8.25;;;0.80;99.90;;;;;;5005275;28;20120;-79
2021/11/28 05:27:57;;;;;;;15.40;7.65;;;0.80;99.90;;;;;;4975569;28;20029;-79
2021/11/28 05:30:22;;;;;;;15.38;7.97;;;0.80;99.90;;;;;;5006514;28;20430;-79
2021/11/28 05:32:48;;;;;;;17.88;7.55;;;0.80;99.90;;;;;;4993250;28;20030;-79
2021/11/28 05:35:13;;;;;;;12.27;8.07;;;0.80;99.90;;;;;;5007875;28;20045;-79
2021/11/28 05:37:39;;;;;;;15.43;8.80;;;0.80;99.90;;;;;;5004322;28;20048;-79
2021/11/28 05:40:05;;;;;;;16.75;7.97;;;0.80;99.90;;;;;;4990760;28;20037;-79
2021/11/28 05:42:31;;;;;;;15.07;7.97;;;0.80;99.90;;;;;;5004325;28;20086;-79
2021/11/28 05:44:56;;;;;;;12.25;8.52;;;0.80;99.90;;;;;;4993517;28;20041;-79
2021/11/28 05:47:22;;;;;;;13.02;7.82;;;0.80;99.90;;;;;;4977418;28;20453;-79
2021/11/28 05:49:47;;;;;;;16.42;8.73;;;0.80;99.90;;;;;;4991764;28;20478;-79
2021/11/28 05:52:13;;;;;;;16.45;8.30;;;0.80;99.90;;;;;;4975219;28;20020;-79
2021/11/28 05:54:38;;;;;;;16.65;9.68;;;0.80;99.90;;;;;;4976629;28;20379;-79
2021/11/28 05:57:04;;;;;;;14.73;8.82;;;0.80;99.90;;;;;;4977031;28;20034;-79
2021/11/28 05:59:30;;;;;;;17.48;10.25;;;0.80;99.90;;;;;;4990014;28;20039;-79
2021/11/28 06:01:55;;;;;;;12.80;7.50;;;0.80;99.90;;;;;;4990559;28;20121;-79
2021/11/28 06:04:21;;;;;;;10.40;6.53;;;0.80;99.90;;;;;;4972963;28;20057;-80
2021/11/28 06:06:47;;;;;;;17.33;8.80;;;0.90;99.90;;;;;;4993714;28;20057;-79
2021/11/28 06:09:12;;;;;;;15.98;8.48;;;0.90;99.90;;;;;;4993038;28;20029;-79
2021/11/28 06:11:38;;;;;;;12.30;8.77;;;0.90;99.90;;;;;;4985678;28;20088;-79
2021/11/28 06:14:03;;;;;;;17.63;8.55;;;0.90;99.90;;;;;;5008353;28;20029;-79
2021/11/28 06:16:29;;;;;;;15.27;8.18;;;0.80;99.90;;;;;;5008201;28;20120;-79
2021/11/28 06:18:54;;;;;;;14.20;9.25;;;0.90;99.90;;;;;;4991814;28;20116;-79
2021/11/28 06:21:20;;;;;;;16.83;7.97;;;0.90;99.90;;;;;;5008916;28;20033;-79
2021/11/28 06:23:46;;;;;;;13.18;8.57;;;0.90;99.90;;;;;;4992039;28;20087;-79
2021/11/28 06:26:11;;;;;;;17.27;7.93;;;0.90;99.90;;;;;;5007041;28;20052;-79
2021/11/28 06:28:37;;;;;;;14.88;8.10;;;0.90;99.90;;;;;;4975951;28;20033;-79
2021/11/28 06:31:02;;;;;;;13.15;8.25;;;0.90;99.90;;;;;;4986640;28;20038;-79
2021/11/28 06:33:28;;;;;;;15.98;8.55;;;0.90;99.90;;;;;;4988966;28;20175;-79
2021/11/28 06:35:54;;;;;;;18.02;8.23;;;0.90;99.90;;;;;;4985838;28;20076;-79
2021/11/28 06:38:19;;;;;;;13.43;7.10;;;0.80;99.90;;;;;;4976258;28;20392;-79
2021/11/28 06:40:45;;;;;;;9.70;5.00;;;0.80;99.90;;;;;;5006160;28;20052;-79
2021/11/28 06:43:11;;;;;;;7.93;5.45;;;0.90;99.90;;;;;;4988694;28;20033;-79
2021/11/28 06:45:37;;;;;;;8.20;4.95;;;1.00;99.90;;;;;;5003513;28;20037;-79
2021/11/28 06:48:03;;;;;;;10.57;5.05;;;1.00;99.90;;;;;;5002907;28;20389;-79
2021/11/28 06:50:28;;;;;;;7.82;5.30;;;1.10;99.90;;;;;;4991413;28;20104;-79
2021/11/28 06:52:54;;;;;;;7.20;5.03;;;1.10;99.90;;;;;;4990675;28;20030;-79
2021/11/28 06:55:20;;;;;;;8.52;5.00;;;1.10;99.90;;;;;;4975676;28;20306;-79
2021/11/28 06:57:45;;;;;;;12.15;8.15;;;1.20;99.90;;;;;;4992149;28;20037;-79
2021/11/28 07:00:11;;;;;;;12.52;8.15;;;1.10;99.90;;;;;;4969826;28;20096;-79
2021/11/28 07:02:37;;;;;;;14.90;7.80;;;1.00;99.90;;;;;;4972849;28;20036;-79
2021/11/28 07:05:03;;;;;;;8.65;4.80;;;1.00;99.90;;;;;;4972936;28;20470;-79
2021/11/28 07:07:28;;;;;;;9.88;5.20;;;1.00;99.90;;;;;;4991101;28;20516;-79
2021/11/28 07:09:54;;;;;;;8.90;5.28;;;1.20;99.90;;;;;;4989526;28;20053;-79
2021/11/28 07:12:19;;;;;;;8.02;5.80;;;1.20;99.90;;;;;;4969620;28;20041;-79
2021/11/28 07:14:45;;;;;;;13.10;7.68;;;1.40;99.90;;;;;;4990034;28;20426;-80
2021/11/28 07:17:11;;;;;;;10.68;6.28;;;1.40;99.90;;;;;;4988429;28;20398;-80
2021/11/28 07:19:36;;;;;;;30.25;16.00;;;1.30;99.90;;;;;;5005271;28;20448;-80
2021/11/28 07:22:02;;;;;;;25.75;13.68;;;1.20;99.90;;;;;;4971728;28;20022;-80
2021/11/28 07:24:28;;;;;;;21.98;11.70;;;1.10;99.90;;;;;;4988267;28;20028;-80
2021/11/28 07:26:53;;;;;;;23.25;12.60;;;1.10;99.90;;;;;;4975099;28;20037;-80
2021/11/28 07:29:19;;;;;;;9.60;5.47;;;1.00;99.90;;;;;;4974759;28;20029;-80
2021/11/28 07:31:45;;;;;;;11.38;7.60;;;1.10;99.90;;;;;;4283374;28;10000375;-80
2021/11/28 07:34:10;;;;;;;12.23;7.32;;;1.20;99.90;;;;;;4642412;28;10000069;-81
2021/11/28 07:36:36;;;;;;;11.65;7.93;;;1.30;99.90;;;;;;4971106;28;20034;-80
2021/11/28 07:39:03;;;;;;;21.00;10.60;;;1.40;99.90;;;;;;4965056;28;20362;-81
2021/11/28 07:41:29;;;;;;;15.98;8.00;;;1.30;99.90;;;;;;4977068;28;20128;-81
2021/11/28 07:43:54;;;;;;;13.75;8.50;;;1.20;99.90;;;;;;4990028;28;20108;-80
2021/11/28 07:46:20;;;;;;;13.07;7.20;;;1.20;99.90;;;;;;5003370;28;20069;-80
2021/11/28 07:48:46;;;;;;;9.20;6.43;;;1.20;99.90;;;;;;5002792;28;20025;-80
2021/11/28 07:51:11;;;;;;;9.00;5.85;;;1.30;99.90;;;;;;4977388;28;20080;-80
2021/11/28 07:53:38;;;;;;;12.45;5.60;;;1.30;99.90;;;;;;4988225;28;20212;-80
2021/11/28 07:56:04;;;;;;;13.63;7.25;;;1.30;99.90;;;;;;4969702;28;20033;-80
2021/11/28 07:58:30;;;;;;;15.45;7.93;;;1.40;99.90;;;;;;4972826;28;20507;-81
2021/11/28 08:00:56;;;;;;;12.25;8.20;;;1.40;99.90;;;;;;4972481;28;20030;-81
2021/11/28 08:03:21;;;;;;;16.35;9.43;;;1.30;99.90;;;;;;4976152;28;20037;-81
2021/11/28 08:05:47;;;;;;;41.45;10.23;;;1.10;99.90;;;;;;4988292;28;20056;-81
2021/11/28 08:08:15;;;;;;;12.57;9.07;;;1.00;99.90;;;;;;5000786;28;20049;-81
2021/11/28 08:10:42;;;;;;;14.15;9.23;;;1.10;99.90;;;;;;4985687;28;20116;-81
2021/11/28 08:13:07;;;;;;;17.40;8.93;;;1.20;99.90;;;;;;4972344;28;20503;-81
2021/11/28 08:15:33;;;;;;;11.95;7.70;;;1.20;99.90;;;;;;4969960;28;20037;-81
2021/11/28 08:17:58;;;;;;;14.18;9.10;;;1.30;99.90;;;;;;4973169;28;20057;-81
2021/11/28 08:20:24;;;;;;;17.75;9.82;;;1.40;99.90;;;;;;4972423;28;20060;-81
2021/11/28 08:22:50;;;;;;;16.20;9.15;;;1.50;99.90;;;;;;4990452;28;20096;-81
2021/11/28 08:25:16;;;;;;;15.52;8.05;;;1.50;99.90;;;;;;4975373;28;20038;-81
2021/11/28 08:27:41;;;;;;;12.35;7.60;;;1.60;99.90;;;;;;4999598;28;20034;-81
2021/11/28 08:30:13;;;;;;;14.60;7.97;;;1.60;99.90;;;;;;4990966;28;20408;-81
2021/11/28 08:32:39;;;;;;;17.75;9.70;;;1.60;99.90;;;;;;5001449;28;20072;-80
2021/11/28 08:35:06;;;;;;;17.15;9.50;;;1.60;99.90;;;;;;4990254;28;20037;-81
2021/11/28 08:37:32;;;;;;;17.75;10.60;;;1.50;99.90;;;;;;4974442;28;20053;-81
2021/11/28 08:39:58;;;;;;;18.95;11.30;;;1.60;99.90;;;;;;5015258;28;20087;-81
2021/11/28 08:42:24;;;;;;;20.90;10.55;;;1.60;99.90;;;;;;5002879;28;20124;-80
2021/11/28 08:44:51;;;;;;;26.52;11.30;;;1.60;99.90;;;;;;4985390;28;20022;-80
2021/11/28 08:47:17;;;;;;;17.33;11.48;;;1.60;99.90;;;;;;4983689;28;20022;-80
2021/11/28 08:49:43;;;;;;;21.35;13.13;;;1.70;99.90;;;;;;4975244;28;20029;-80
2021/11/28 08:52:09;;;;;;;23.15;12.50;;;1.70;99.90;;;;;;4993089;28;20033;-79
2021/11/28 08:54:35;;;;;;;23.58;13.77;;;1.80;99.90;;;;;;4989311;28;20507;-80
2021/11/28 08:57:00;;;;;;;24.38;12.57;;;1.80;99.90;;;;;;5000704;28;20025;-80
2021/11/28 08:59:27;;;;;;;22.48;13.68;;;1.80;99.90;;;;;;4974840;28;20037;-79
2021/11/28 09:01:53;;;;;;;21.85;12.90;;;1.90;99.90;;;;;;4973464;28;20472;-80
2021/11/28 09:04:18;;;;;;;29.23;14.23;;;2.00;99.90;;;;;;4985902;28;20022;-80
2021/11/28 09:06:44;;;;;;;18.80;11.10;;;2.00;99.90;;;;;;4987171;28;20366;-80
2021/11/28 09:09:10;;;;;;;28.05;14.02;;;2.00;99.90;;;;;;4985179;28;20029;-79
2021/11/28 09:11:35;;;;;;;19.27;12.35;;;2.10;99.90;;;;;;4991159;28;20068;-79
2021/11/28 09:14:02;;;;;;;23.38;13.50;;;2.20;99.90;;;;;;4968812;28;20049;-79
2021/11/28 09:16:28;;;;;;;11.85;7.22;;;2.20;99.90;;;;;;4986254;28;20271;-79
2021/11/28 09:18:59;;;;;;;17.45;11.23;;;2.30;99.90;;;;;;4972880;28;20098;-79
2021/11/28 09:21:25;;;;;;;14.27;8.88;;;2.40;99.90;;;;;;4969664;28;20037;-79
2021/11/28 09:26:34;;;;;;;13.32;6.95;;;2.40;99.90;;;;;;4986312;28;20099;-78
2021/11/28 09:29:01;;;;;;;19.25;10.93;;;2.50;99.90;;;;;;4966788;28;20529;-79
2021/11/28 09:31:27;;;;;;;11.73;7.80;;;2.50;99.90;;;;;;4987286;28;20038;-79
2021/11/28 09:33:53;;;;;;;15.63;10.00;;;2.60;99.90;;;;;;5003118;28;20061;-79
2021/11/28 09:36:18;;;;;;;29.02;12.13;;;2.60;99.90;;;;;;4991080;28;20068;-79
2021/11/28 09:38:44;;;;;;;20.83;12.48;;;2.60;99.90;;;;;;4997736;28;20033;-79
2021/11/28 09:41:11;;;;;;;23.90;13.00;;;2.70;99.90;;;;;;5001083;28;20050;-79
2021/11/28 09:43:40;;;;;;;20.27;11.45;;;2.70;99.90;;;;;;4984639;28;20034;-79
2021/11/28 09:46:06;;;;;;;20.50;10.98;;;2.80;99.90;;;;;;4993375;28;20034;-79
2021/11/28 09:48:34;;;;;;;23.40;13.63;;;2.80;99.90;;;;;;4972088;28;20048;-79
2021/11/28 09:51:03;;;;;;;23.50;13.77;;;2.80;99.90;;;;;;4970765;28;20034;-78
2021/11/28 09:53:30;;;;;;;25.27;15.25;;;2.90;99.90;;;;;;4990610;28;20040;-78
2021/11/28 09:55:56;;;;;;;25.08;14.30;;;2.90;99.90;;;;;;4989868;28;20404;-79
2021/11/28 09:58:21;;;;;;;29.65;17.25;;;3.00;99.90;;;;;;4972995;28;20029;-79
2021/11/28 10:00:47;;;;;;;31.85;18.73;;;3.00;99.90;;;;;;4989449;28;20499;-79
2021/11/28 10:03:16;;;;;;;33.42;18.65;;;3.10;99.90;;;;;;4977458;28;20113;-79
2021/11/28 10:05:41;;;;;;;27.00;14.10;;;3.10;99.90;;;;;;4999906;28;20041;-79
2021/11/28 10:08:07;;;;;;;28.35;17.25;;;3.10;99.90;;;;;;4974070;28;20026;-79
2021/11/28 10:10:33;;;;;;;31.40;17.17;;;3.10;99.90;;;;;;4976501;28;20037;-79
2021/11/28 10:12:59;;;;;;;14.95;9.85;;;3.10;99.90;;;;;;4991135;28;20026;-79
2021/11/28 10:15:27;;;;;;;17.65;10.98;;;3.20;99.90;;;;;;4976933;28;20329;-79
2021/11/28 10:17:53;;;;;;;12.32;7.53;;;3.20;99.90;;;;;;5000590;28;20577;-79
2021/11/28 10:20:21;;;;;;;18.70;11.15;;;3.20;99.90;;;;;;4978728;28;20087;-79
2021/11/28 10:22:47;;;;;;;17.13;10.50;;;3.20;99.90;;;;;;4981360;28;20040;-79
2021/11/28 10:25:16;;;;;;;15.00;9.73;;;3.30;99.90;;;;;;5000611;28;20029;-79
2021/11/28 10:27:47;;;;;;;17.60;9.93;;;3.30;99.90;;;;;;5002193;28;20050;-79
2021/11/28 10:30:27;;;;;;;19.00;11.70;;;3.40;99.90;;;;;;4971478;28;20088;-79
2021/11/28 10:32:54;;;;;;;11.88;8.88;;;3.50;99.90;;;;;;5013075;28;20026;-79
2021/11/28 10:35:20;;;;;;;15.50;9.57;;;3.50;99.90;;;;;;4989454;28;20025;-79
2021/11/28 10:37:47;;;;;;;20.80;10.35;;;3.70;99.90;;;;;;4989204;28;20073;-79
2021/11/28 10:40:18;;;;;;;19.00;11.32;;;4.00;99.90;;;;;;5000763;28;20053;-79
2021/11/28 10:42:48;;;;;;;22.73;13.25;;;4.20;99.90;;;;;;4974970;28;20056;-79
2021/11/28 10:45:16;;;;;;;17.35;9.82;;;4.50;99.90;;;;;;4991670;28;20425;-79
2021/11/28 10:47:51;;;;;;;17.42;10.15;;;4.40;99.90;;;;;;4976144;28;20541;-79
2021/11/28 10:50:27;;;;;;;18.00;11.88;;;4.20;99.90;;;;;;5002108;28;20026;-79
2021/11/28 10:53:02;;;;;;;14.32;9.13;;;4.40;99.90;;;;;;4995401;28;20481;-79
2021/11/28 10:55:39;;;;;;;24.20;14.18;;;4.60;99.90;;;;;;5003797;28;20452;-79
2021/11/28 10:58:12;;;;;;;19.42;11.45;;;4.70;99.90;;;;;;4969004;28;20030;-79
2021/11/28 11:00:40;;;;;;;19.92;10.85;;;4.70;99.90;;;;;;4986117;28;20029;-79
2021/11/28 11:03:12;;;;;;;21.63;14.43;;;4.90;99.90;;;;;;4972635;28;20386;-79
2021/11/28 11:05:38;;;;;;;18.58;10.50;;;5.10;99.90;;;;;;4991122;28;20029;-79
2021/11/28 11:08:05;;;;;;;16.08;10.15;;;5.40;99.90;;;;;;5005483;28;20037;-80
2021/11/28 11:10:33;;;;;;;23.92;13.45;;;5.40;99.90;;;;;;4985176;28;20117;-80
2021/11/28 11:12:58;;;;;;;25.35;12.27;;;5.00;99.90;;;;;;4976127;28;20034;-80
2021/11/28 11:15:45;;;;;;;22.13;13.40;;;4.80;99.90;;;;;;4975048;28;20033;-80
2021/11/28 11:18:12;;;;;;;;;;;5.00;99.90;;;;;;5012860;28;20509;-80
2021/11/28 11:20:40;;;;;;;21.02;11.95;;;4.90;99.90;;;;;;5005613;28;20344;-80
2021/11/28 11:23:42;;;;;;;19.02;11.85;;;5.10;99.90;;;;;;4988055;28;20040;-80
2021/11/28 11:26:28;;;;;;;25.45;15.00;;;5.10;99.90;;;;;;5003110;28;20034;-80
2021/11/28 11:29:03;;;;;;;23.65;14.75;;;4.80;99.90;;;;;;4966670;28;20542;-80
2021/11/28 11:31:29;;;;;;;25.55;15.48;;;4.90;99.90;;;;;;5018520;28;20064;-80
2021/11/28 11:33:55;;;;;;;25.63;15.20;;;4.90;99.90;;;;;;5004252;28;20061;-80
2021/11/28 11:36:20;;;;;;;26.88;16.63;;;5.10;99.90;;;;;;4984636;28;20038;-80
2021/11/28 11:38:47;;;;;;;22.77;13.55;;;5.30;99.90;;;;;;4989035;28;20034;-80
2021/11/28 11:41:13;;;;;;;18.30;10.85;;;5.20;99.90;;;;;;4988366;28;20033;-80
2021/11/28 11:43:40;;;;;;;27.05;17.10;;;5.50;99.90;;;;;;4984485;28;20083;-80
2021/11/28 11:46:08;;;;;;;23.75;14.43;;;5.50;99.90;;;;;;4987266;28;20030;-80
2021/11/28 11:48:34;;;;;;;23.30;14.70;;;5.70;99.90;;;;;;4986770;28;20033;-80
2021/11/28 11:51:01;;;;;;;28.48;16.48;;;5.80;99.90;;;;;;4971431;28;20371;-80
2021/11/28 11:53:27;;;;;;;23.60;16.20;;;5.70;99.90;;;;;;4985312;28;20030;-80
2021/11/28 11:55:53;;;;;;;22.38;14.35;;;5.70;99.90;;;;;;4991014;28;20033;-80
2021/11/28 11:58:24;;;;;;;21.35;13.50;;;5.70;99.90;;;;;;4975680;28;20021;-80
2021/11/28 12:01:00;;;;;;;20.45;13.60;;;5.80;99.90;;;;;;4999598;28;20088;-80
2021/11/28 12:03:25;;;;;;;20.50;13.55;;;5.80;99.90;;;;;;4991311;28;20045;-80
2021/11/28 12:05:52;;;;;;;20.95;13.85;;;5.80;99.90;;;;;;4955763;28;20419;-81
2021/11/28 12:08:19;;;;;;;17.73;12.25;;;5.90;99.90;;;;;;4993862;28;20088;-80
2021/11/28 12:10:53;;;;;;;17.50;12.35;;;5.90;99.90;;;;;;5000511;28;20038;-80
2021/11/28 12:13:25;;;;;;;20.50;13.52;;;6.00;99.90;;;;;;5017891;28;20113;-80
2021/11/28 12:15:51;;;;;;;22.67;13.00;;;6.10;99.90;;;;;;5007308;28;20030;-79
2021/11/28 12:18:35;;;;;;;21.17;12.68;;;6.10;99.90;;;;;;4988416;28;20038;-80
2021/11/28 12:21:01;;;;;;;22.63;13.50;;;6.00;99.90;;;;;;5017263;28;20109;-79
2021/11/28 12:23:59;;;;;;;20.58;13.32;;;6.10;99.90;;;;;;5002755;28;20167;-80
2021/11/28 12:26:33;;;;;;;21.67;14.07;;;6.20;99.90;;;;;;4987315;28;20513;-80
2021/11/28 12:29:08;;;;;;;21.48;14.23;;;6.20;99.90;;;;;;5003571;28;20034;-79
2021/11/28 12:31:35;;;;;;;21.25;13.20;;;6.30;99.90;;;;;;5003774;28;20029;-79
2021/11/28 12:34:04;;;;;;;22.77;12.85;;;6.20;99.90;;;;;;4973277;28;20029;-79
2021/11/28 12:36:39;;;;;;;16.52;10.70;;;6.30;99.90;;;;;;4988765;28;20037;-80
2021/11/28 12:39:16;;;;;;;17.85;10.68;;;6.30;99.90;;;;;;5018327;28;20049;-80
2021/11/28 12:44:36;;;;;;;20.52;13.15;;;6.40;99.90;;;;;;5020096;28;20025;-79
2021/11/28 12:47:07;;;;;;;20.10;12.67;;;6.40;99.90;;;;;;4987076;28;20654;-79
2021/11/28 12:49:34;;;;;;;18.40;12.77;;;6.30;99.90;;;;;;5006111;28;20782;-79
2021/11/28 12:52:18;;;;;;;20.60;12.00;;;6.60;99.90;;;;;;4987327;28;20103;-79
2021/11/28 12:54:45;;;;;;;21.23;14.02;;;6.60;99.90;;;;;;4999980;28;20041;-79